sensor_id;sensor_type;location;lat;lon;timestamp;P1;durP1;ratioP1;P2;durP2;ratioP2
69706;SDS011;56975;55.726;37.566;2023-12-20T00:00:00;2.4;;;1.6;;
69706;SDS011;56975;55.726;37.566;2023-12-20T00:10:00;3.3;;;2.2;;
69706;SDS011;56975;55.726;37.566;2023-12-20T00:15:00;6.2;;;1.9;;
69706;SDS011;56975;55.726;37.566;2023-12-20T00:25:00;6.3;;;2.2;;
69706;SDS011;56975;55.726;37.566;2023-12-20T00:30:00;3.1;;;1.6;;
69706;SDS011;56975;55.726;37.566;2023-12-20T00:40:00;3.7;;;2.1;;
69706;SDS011;56975;55.726;37.566;2023-12-20T00:45:00;3.4;;;1.8;;
69706;SDS011;56975;55.726;37.566;2023-12-20T00:55:00;4.7;;;2.3;;
69706;SDS011;56975;55.726;37.566;2023-12-20T01:00:00;4.5;;;1.9;;
69706;SDS011;56975;55.726;37.566;2023-12-20T01:10:00;5.7;;;2.6;;
69706;SDS011;56975;55.726;37.566;2023-12-20T01:15:02;4.1;;;2.0;;
69706;SDS011;56975;55.726;37.566;2023-12-20T01:25:00;3.5;;;1.9;;
69706;SDS011;56975;55.726;37.566;2023-12-20T01:30:00;5.5;;;2.3;;
69706;SDS011;56975;55.726;37.566;2023-12-20T01:40:00;2.9;;;1.7;;
69706;SDS011;56975;55.726;37.566;2023-12-20T01:45:00;3.9;;;2.0;;
69706;SDS011;56975;55.726;37.566;2023-12-20T01:55:00;4.0;;;1.9;;
69706;SDS011;56975;55.726;37.566;2023-12-20T02:00:00;2.8;;;1.7;;
69706;SDS011;56975;55.726;37.566;2023-12-20T02:10:00;2.4;;;1.5;;
69706;SDS011;56975;55.726;37.566;2023-12-20T02:15:00;2.3;;;1.2;;
69706;SDS011;56975;55.726;37.566;2023-12-20T02:25:00;3.5;;;1.2;;
69706;SDS011;56975;55.726;37.566;2023-12-20T02:30:00;4.6;;;1.6;;
69706;SDS011;56975;55.726;37.566;2023-12-20T02:40:00;4.5;;;1.5;;
69706;SDS011;56975;55.726;37.566;2023-12-20T02:45:00;4.1;;;1.3;;
69706;SDS011;56975;55.726;37.566;2023-12-20T02:55:00;3.0;;;1.5;;
69706;SDS011;56975;55.726;37.566;2023-12-20T03:00:00;3.9;;;1.8;;
69706;SDS011;56975;55.726;37.566;2023-12-20T03:10:00;6.2;;;2.6;;
69706;SDS011;56975;55.726;37.566;2023-12-20T03:15:00;6.4;;;2.3;;
69706;SDS011;56975;55.726;37.566;2023-12-20T03:25:00;7.3;;;2.4;;
69706;SDS011;56975;55.726;37.566;2023-12-20T03:30:00;5.3;;;2.2;;
69706;SDS011;56975;55.726;37.566;2023-12-20T03:40:00;4.0;;;2.2;;
69706;SDS011;56975;55.726;37.566;2023-12-20T03:45:00;6.9;;;3.3;;
69706;SDS011;56975;55.726;37.566;2023-12-20T03:55:00;4.7;;;2.4;;
69706;SDS011;56975;55.726;37.566;2023-12-20T04:00:00;4.7;;;2.6;;
69706;SDS011;56975;55.726;37.566;2023-12-20T04:10:00;4.6;;;2.7;;
69706;SDS011;56975;55.726;37.566;2023-12-20T04:15:00;7.3;;;3.2;;
69706;SDS011;56975;55.726;37.566;2023-12-20T04:25:00;7.0;;;3.4;;
69706;SDS011;56975;55.726;37.566;2023-12-20T04:30:00;9.1;;;4.2;;
69706;SDS011;56975;55.726;37.566;2023-12-20T04:40:00;6.3;;;3.5;;
69706;SDS011;56975;55.726;37.566;2023-12-20T04:45:00;5.0;;;3.0;;
69706;SDS011;56975;55.726;37.566;2023-12-20T04:55:00;6.9;;;3.2;;
69706;SDS011;56975;55.726;37.566;2023-12-20T05:00:00;8.1;;;3.9;;
69706;SDS011;56975;55.726;37.566;2023-12-20T05:10:00;7.6;;;3.9;;
69706;SDS011;56975;55.726;37.566;2023-12-20T05:15:00;7.9;;;3.5;;
69706;SDS011;56975;55.726;37.566;2023-12-20T05:25:00;7.7;;;4.2;;
69706;SDS011;56975;55.726;37.566;2023-12-20T05:30:00;5.4;;;2.6;;
69706;SDS011;56975;55.726;37.566;2023-12-20T05:40:00;4.9;;;2.8;;
69706;SDS011;56975;55.726;37.566;2023-12-20T05:45:00;9.5;;;3.2;;
69706;SDS011;56975;55.726;37.566;2023-12-20T05:55:00;9.2;;;3.0;;
69706;SDS011;56975;55.726;37.566;2023-12-20T06:00:00;6.0;;;3.1;;
69706;SDS011;56975;55.726;37.566;2023-12-20T06:10:00;9.5;;;3.7;;
69706;SDS011;56975;55.726;37.566;2023-12-20T06:15:00;5.9;;;2.7;;
69706;SDS011;56975;55.726;37.566;2023-12-20T06:25:00;11.6;;;4.0;;
69706;SDS011;56975;55.726;37.566;2023-12-20T06:30:00;6.3;;;3.0;;
69706;SDS011;56975;55.726;37.566;2023-12-20T06:40:00;5.6;;;2.7;;
69706;SDS011;56975;55.726;37.566;2023-12-20T06:45:00;4.1;;;2.0;;
69706;SDS011;56975;55.726;37.566;2023-12-20T06:55:00;5.2;;;2.3;;
69706;SDS011;56975;55.726;37.566;2023-12-20T07:00:00;6.1;;;2.6;;
69706;SDS011;56975;55.726;37.566;2023-12-20T07:10:00;8.3;;;2.5;;
69706;SDS011;56975;55.726;37.566;2023-12-20T07:15:00;7.0;;;2.5;;
69706;SDS011;56975;55.726;37.566;2023-12-20T07:25:00;5.3;;;2.2;;
69706;SDS011;56975;55.726;37.566;2023-12-20T07:30:00;12.8;;;3.0;;
69706;SDS011;56975;55.726;37.566;2023-12-20T07:40:00;6.0;;;2.3;;
69706;SDS011;56975;55.726;37.566;2023-12-20T07:45:00;3.7;;;2.5;;
69706;SDS011;56975;55.726;37.566;2023-12-20T07:55:00;5.5;;;2.2;;
69706;SDS011;56975;55.726;37.566;2023-12-20T08:00:00;4.5;;;2.4;;
69706;SDS011;56975;55.726;37.566;2023-12-20T08:10:00;4.3;;;2.0;;
69706;SDS011;56975;55.726;37.566;2023-12-20T08:15:01;3.9;;;2.3;;
69706;SDS011;56975;55.726;37.566;2023-12-20T08:25:00;4.0;;;2.5;;
69706;SDS011;56975;55.726;37.566;2023-12-20T08:30:00;6.0;;;2.4;;
69706;SDS011;56975;55.726;37.566;2023-12-20T08:40:00;9.2;;;2.6;;
69706;SDS011;56975;55.726;37.566;2023-12-20T08:45:00;10.8;;;2.6;;
69706;SDS011;56975;55.726;37.566;2023-12-20T08:55:00;2.5;;;1.8;;
69706;SDS011;56975;55.726;37.566;2023-12-20T09:00:00;5.2;;;2.1;;
69706;SDS011;56975;55.726;37.566;2023-12-20T09:10:00;4.0;;;2.4;;
69706;SDS011;56975;55.726;37.566;2023-12-20T09:15:00;5.8;;;2.7;;
69706;SDS011;56975;55.726;37.566;2023-12-20T09:25:00;5.6;;;3.0;;
69706;SDS011;56975;55.726;37.566;2023-12-20T09:30:00;3.9;;;2.4;;
69706;SDS011;56975;55.726;37.566;2023-12-20T09:40:00;4.4;;;2.7;;
69706;SDS011;56975;55.726;37.566;2023-12-20T09:45:00;5.4;;;2.4;;
69706;SDS011;56975;55.726;37.566;2023-12-20T09:55:00;4.4;;;2.8;;
69706;SDS011;56975;55.726;37.566;2023-12-20T10:00:00;8.9;;;2.8;;
69706;SDS011;56975;55.726;37.566;2023-12-20T10:10:00;4.8;;;3.0;;
69706;SDS011;56975;55.726;37.566;2023-12-20T10:15:00;9.6;;;2.7;;
69706;SDS011;56975;55.726;37.566;2023-12-20T10:25:00;17.1;;;4.1;;
69706;SDS011;56975;55.726;37.566;2023-12-20T10:30:00;4.7;;;2.7;;
69706;SDS011;56975;55.726;37.566;2023-12-20T10:40:00;4.4;;;2.4;;
69706;SDS011;56975;55.726;37.566;2023-12-20T10:45:00;7.1;;;2.6;;
69706;SDS011;56975;55.726;37.566;2023-12-20T10:55:00;4.5;;;2.2;;
69706;SDS011;56975;55.726;37.566;2023-12-20T11:00:00;2.7;;;1.7;;
69706;SDS011;56975;55.726;37.566;2023-12-20T11:10:01;3.7;;;1.7;;
69706;SDS011;56975;55.726;37.566;2023-12-20T11:15:00;6.0;;;2.8;;
69706;SDS011;56975;55.726;37.566;2023-12-20T11:25:02;5.5;;;2.6;;
69706;SDS011;56975;55.726;37.566;2023-12-20T11:30:00;2.9;;;1.6;;
69706;SDS011;56975;55.726;37.566;2023-12-20T11:40:00;3.3;;;1.6;;
69706;SDS011;56975;55.726;37.566;2023-12-20T11:45:01;3.0;;;1.7;;
69706;SDS011;56975;55.726;37.566;2023-12-20T11:55:00;3.0;;;1.8;;
69706;SDS011;56975;55.726;37.566;2023-12-20T12:00:00;4.3;;;2.0;;
69706;SDS011;56975;55.726;37.566;2023-12-20T12:10:00;4.5;;;2.5;;
69706;SDS011;56975;55.726;37.566;2023-12-20T12:15:00;4.2;;;1.7;;
69706;SDS011;56975;55.726;37.566;2023-12-20T12:25:09;4.6;;;2.8;;
69706;SDS011;56975;55.726;37.566;2023-12-20T12:30:00;5.7;;;2.8;;
69706;SDS011;56975;55.726;37.566;2023-12-20T12:40:00;4.7;;;2.4;;
69706;SDS011;56975;55.726;37.566;2023-12-20T12:45:00;4.1;;;2.2;;
69706;SDS011;56975;55.726;37.566;2023-12-20T12:55:00;4.4;;;2.7;;
69706;SDS011;56975;55.726;37.566;2023-12-20T13:00:00;5.0;;;2.5;;
69706;SDS011;56975;55.726;37.566;2023-12-20T13:10:00;6.6;;;2.9;;
69706;SDS011;56975;55.726;37.566;2023-12-20T13:15:00;3.3;;;1.9;;
69706;SDS011;56975;55.726;37.566;2023-12-20T13:25:00;3.6;;;2.0;;
69706;SDS011;56975;55.726;37.566;2023-12-20T13:30:00;5.7;;;2.5;;
69706;SDS011;56975;55.726;37.566;2023-12-20T13:40:00;5.2;;;2.2;;
69706;SDS011;56975;55.726;37.566;2023-12-20T13:45:00;5.2;;;1.8;;
69706;SDS011;56975;55.726;37.566;2023-12-20T13:55:00;3.5;;;1.9;;
69706;SDS011;56975;55.726;37.566;2023-12-20T14:00:00;3.9;;;2.1;;
69706;SDS011;56975;55.726;37.566;2023-12-20T14:10:00;2.7;;;1.5;;
69706;SDS011;56975;55.726;37.566;2023-12-20T14:15:00;3.6;;;1.8;;
69706;SDS011;56975;55.726;37.566;2023-12-20T14:25:00;3.2;;;1.7;;
69706;SDS011;56975;55.726;37.566;2023-12-20T14:30:00;3.3;;;1.9;;
69706;SDS011;56975;55.726;37.566;2023-12-20T14:40:00;1.9;;;1.3;;
69706;SDS011;56975;55.726;37.566;2023-12-20T14:45:00;3.0;;;1.9;;
69706;SDS011;56975;55.726;37.566;2023-12-20T14:55:00;3.9;;;1.8;;
69706;SDS011;56975;55.726;37.566;2023-12-20T15:00:00;6.0;;;1.8;;
69706;SDS011;56975;55.726;37.566;2023-12-20T15:10:00;4.1;;;2.1;;
69706;SDS011;56975;55.726;37.566;2023-12-20T15:15:00;9.3;;;2.2;;
69706;SDS011;56975;55.726;37.566;2023-12-20T15:25:00;5.4;;;3.1;;
69706;SDS011;56975;55.726;37.566;2023-12-20T15:30:00;9.8;;;3.3;;
69706;SDS011;56975;55.726;37.566;2023-12-20T15:40:00;3.4;;;1.5;;
69706;SDS011;56975;55.726;37.566;2023-12-20T15:45:00;3.4;;;1.5;;
69706;SDS011;56975;55.726;37.566;2023-12-20T15:55:00;4.0;;;2.5;;
69706;SDS011;56975;55.726;37.566;2023-12-20T16:00:00;7.2;;;3.3;;
69706;SDS011;56975;55.726;37.566;2023-12-20T16:10:00;6.8;;;3.9;;
69706;SDS011;56975;55.726;37.566;2023-12-20T16:15:00;4.8;;;2.9;;
69706;SDS011;56975;55.726;37.566;2023-12-20T16:25:00;5.3;;;3.4;;
69706;SDS011;56975;55.726;37.566;2023-12-20T16:30:00;7.7;;;4.4;;
69706;SDS011;56975;55.726;37.566;2023-12-20T16:40:00;6.8;;;3.5;;
69706;SDS011;56975;55.726;37.566;2023-12-20T16:45:00;8.4;;;5.0;;
69706;SDS011;56975;55.726;37.566;2023-12-20T16:55:00;4.2;;;2.5;;
69706;SDS011;56975;55.726;37.566;2023-12-20T17:00:00;4.3;;;2.1;;
69706;SDS011;56975;55.726;37.566;2023-12-20T17:10:00;10.8;;;4.2;;
69706;SDS011;56975;55.726;37.566;2023-12-20T17:15:00;5.7;;;2.6;;
69706;SDS011;56975;55.726;37.566;2023-12-20T17:25:00;1.7;;;1.1;;
69706;SDS011;56975;55.726;37.566;2023-12-20T17:30:00;3.3;;;1.5;;
69706;SDS011;56975;55.726;37.566;2023-12-20T17:40:00;5.7;;;2.1;;
69706;SDS011;56975;55.726;37.566;2023-12-20T17:45:00;3.4;;;2.1;;
69706;SDS011;56975;55.726;37.566;2023-12-20T17:55:00;4.8;;;2.4;;
69706;SDS011;56975;55.726;37.566;2023-12-20T18:00:10;4.9;;;2.3;;
69706;SDS011;56975;55.726;37.566;2023-12-20T18:10:00;6.1;;;3.6;;
69706;SDS011;56975;55.726;37.566;2023-12-20T18:15:00;5.7;;;3.4;;
69706;SDS011;56975;55.726;37.566;2023-12-20T18:25:00;9.6;;;6.1;;
69706;SDS011;56975;55.726;37.566;2023-12-20T18:30:00;12.4;;;7.0;;
69706;SDS011;56975;55.726;37.566;2023-12-20T18:40:00;7.0;;;4.3;;
69706;SDS011;56975;55.726;37.566;2023-12-20T18:45:00;6.1;;;3.7;;
69706;SDS011;56975;55.726;37.566;2023-12-20T18:55:00;7.2;;;2.2;;
69706;SDS011;56975;55.726;37.566;2023-12-20T19:00:00;5.1;;;2.1;;
69706;SDS011;56975;55.726;37.566;2023-12-20T19:10:00;6.5;;;2.1;;
69706;SDS011;56975;55.726;37.566;2023-12-20T19:15:00;6.2;;;2.3;;
69706;SDS011;56975;55.726;37.566;2023-12-20T19:25:00;5.6;;;2.4;;
69706;SDS011;56975;55.726;37.566;2023-12-20T19:30:00;5.9;;;2.6;;
69706;SDS011;56975;55.726;37.566;2023-12-20T19:40:00;6.9;;;2.1;;
69706;SDS011;56975;55.726;37.566;2023-12-20T19:45:00;5.6;;;1.9;;
69706;SDS011;56975;55.726;37.566;2023-12-20T19:55:00;9.1;;;2.4;;
69706;SDS011;56975;55.726;37.566;2023-12-20T20:00:00;3.5;;;2.2;;
69706;SDS011;56975;55.726;37.566;2023-12-20T20:10:00;8.0;;;2.1;;
69706;SDS011;56975;55.726;37.566;2023-12-20T20:15:00;6.3;;;2.5;;
69706;SDS011;56975;55.726;37.566;2023-12-20T20:25:00;7.2;;;3.4;;
69706;SDS011;56975;55.726;37.566;2023-12-20T20:30:00;5.1;;;3.1;;
69706;SDS011;56975;55.726;37.566;2023-12-20T20:40:00;6.0;;;2.6;;
69706;SDS011;56975;55.726;37.566;2023-12-20T20:45:00;6.7;;;2.7;;
69706;SDS011;56975;55.726;37.566;2023-12-20T20:55:00;5.0;;;2.8;;
69706;SDS011;56975;55.726;37.566;2023-12-20T21:00:00;5.5;;;3.0;;
69706;SDS011;56975;55.726;37.566;2023-12-20T21:10:00;5.2;;;2.9;;
69706;SDS011;56975;55.726;37.566;2023-12-20T21:15:00;10.4;;;3.7;;
69706;SDS011;56975;55.726;37.566;2023-12-20T21:25:00;4.0;;;2.1;;
69706;SDS011;56975;55.726;37.566;2023-12-20T21:30:00;7.2;;;2.8;;
69706;SDS011;56975;55.726;37.566;2023-12-20T21:40:00;5.7;;;3.0;;
69706;SDS011;56975;55.726;37.566;2023-12-20T21:45:00;8.5;;;3.1;;
69706;SDS011;56975;55.726;37.566;2023-12-20T21:55:00;10.6;;;3.2;;
69706;SDS011;56975;55.726;37.566;2023-12-20T22:00:00;7.4;;;3.7;;
69706;SDS011;56975;55.726;37.566;2023-12-20T22:10:00;7.9;;;3.8;;
69706;SDS011;56975;55.726;37.566;2023-12-20T22:15:00;7.7;;;3.8;;
69706;SDS011;56975;55.726;37.566;2023-12-20T22:25:00;7.6;;;4.5;;
69706;SDS011;56975;55.726;37.566;2023-12-20T22:30:00;9.2;;;5.1;;
69706;SDS011;56975;55.726;37.566;2023-12-20T22:40:00;10.8;;;5.9;;
69706;SDS011;56975;55.726;37.566;2023-12-20T22:45:00;12.4;;;6.6;;
69706;SDS011;56975;55.726;37.566;2023-12-20T22:55:00;11.9;;;6.1;;
69706;SDS011;56975;55.726;37.566;2023-12-20T23:00:00;12.4;;;5.9;;
69706;SDS011;56975;55.726;37.566;2023-12-20T23:10:03;10.0;;;5.7;;
69706;SDS011;56975;55.726;37.566;2023-12-20T23:15:00;9.5;;;5.1;;
69706;SDS011;56975;55.726;37.566;2023-12-20T23:25:00;9.1;;;4.5;;
69706;SDS011;56975;55.726;37.566;2023-12-20T23:30:00;8.8;;;4.8;;
69706;SDS011;56975;55.726;37.566;2023-12-20T23:40:00;7.7;;;4.6;;
69706;SDS011;56975;55.726;37.566;2023-12-20T23:45:00;9.9;;;4.7;;
69706;SDS011;56975;55.726;37.566;2023-12-20T23:55:00;8.0;;;4.1;;
